Terminal Aerodrome Forecast
Issued by NWS Tallahassee, FL

Home | Current Version | Previous Version | Text Only | Print | Product List | Glossary On
Versions: 1 2 3 4 5 6 7 8 9 10 11 12 13 14 15 16 17 18 19
000
FTUS42 KTAE 301700
TAFTLH
TAF
KTLH 301739Z 3018/0118 05005KT P6SM BKN015
     FM302000 05005KT P6SM BKN025
     FM302200 05005KT P6SM BKN035
     FM010900 06004KT 4SM BR SCT004
     FM011300 10006KT P6SM SCT035=

USA.gov is the U.S. government's official web portal to all federal, state and local government web resources and services.